Current Conditions
Overcast
Conditions



Pressure
1003.92 (mb) - 29.65 (inHG)
Visibility

6.2 (mimiles) - 10.0 (km)
   Temperature
15  °C
59°F
13  °C
Dewpoint
88  %
 Humidity
   Wind Speed
18  mph
16  kts
29  km/h
8.0  m/s
   Wind Direction
 210°
South South
West
   Airport Data
EGGD
Location Bristol International 15 mi (24.14 km)
Metar :EGGD 260620Z AUTO 21016G27KT 9999 OVC009 15/13 Q1004
Sat 26th October 07:20 am
   Raw Metar Info
Raw METAR is the most common format in the world for the transmission of observational weather data. It is highly standardized through the International Civil Aviation Organization (ICAO), which allows it to be understood throughout most of the world.
   API Info
Data Provided by
https://www.checkwx.com/weather/EGGD
   © Info
CSS/SVG/PHP scripts were developed by weather34.com for use in the weather34 template © 2015-2020

Guide Info provided by Metar-Wikipedia